Liberty, NC (27298)

11:08 AM EDT on August 20, 2014 (GMT -0400)
Burlington | Change Station
CLOSE
Current Station
Personal Weather Station
Location: Burlington, NC
Elevation: 617 ft
Nearby Weather Stations

Elev 617 ft 36.04 °N, 79.51 °W | Updated 6 minutes ago

Mostly Cloudy
Mostly Cloudy
79.5 °F
Feels Like 84 °F
N
0.0
Wind Variable Wind from SE
Gusts 0.0 mph

Today
High -- | Low -- °F
--% Chance of Precip.
Yesterday
High -- | Low -- °F
Precip. -- in
6:40 AM 8:01 PM
Waning Crescent, 21% visible
Pressure 30.01 in
Visibility 10.0 miles
Clouds Mostly Cloudy 1800 ft
Heat Index 84 °F
Dew Point 76 °F
Humidity 89%
Rainfall 0.02 in
Snow Depth Not available.
UV 4 out of 12
Pollen 8.30 out of 12
Ozone Good
PM2.5 Moderate
Flu Activity Not available.
METAR KBUY 201454Z AUTO 30003KT 10SM BKN018 27/22 A3003 RMK AO2 SLP162 T02670217 51013

More Conditions Fewer Conditions

Pressure 30.01 in
Visibility 10.0 miles
Clouds Mostly Cloudy 1800 ft
Heat Index 84 °F
Dew Point 76 °F
Humidity 89%
Rainfall 0.02 in
Snow Depth Not available.
UV 4 out of 12
Pollen 8.30 out of 12
Ozone Good
PM2.5 Moderate
Flu Activity Not available.
METAR KBUY 201454Z AUTO 30003KT 10SM BKN018 27/22 A3003 RMK AO2 SLP162 T02670217 51013

More Conditions Fewer Conditions

10-Day Weather Forecast

Almanac

Astronomy

Aug. 20, 2014 Rise Set
Actual Time 6:40 AM EDT 8:01 PM EDT
Civil Twilight 6:13 AM EDT 8:28 PM EDT
Nautical Twilight 5:41 AM EDT 9:00 PM EDT
Astronomical Twilight 5:08 AM EDT 9:33 PM EDT
Moon 2:22 AM EDT 4:41 PM EDT
Length of Visible Light 14h 14m
Length of Day
13h 21m
Tomorrow will be 2m 4s shorter.
Waning Crescent, 21% of the Moon is Illuminated
Today
Waning Crescent
Aug 25
New
Sep 2
First Quarter
Sep 8
Full
Sep 15
Last Quarter

Today's Extremes

State Highs State Lows

Community

WunderPhotos

Upload Photos

1,745,661 photos uploaded!

Nearby

Air Quality

  Air Quality AQ Index Pollutant
Yesterday Good
OZONE
Yesterday Good
PM2.5
Current Moderate
PM2.5
Current Good
OZONE
Wednesday Moderate
OZONE
Wednesday Good
PM2.5
Thursday Moderate
OZONE
Thursday Moderate
PM2.5
Friday Moderate
OZONE
Friday Moderate
PM2.5

Snow Depth

Station Depth Elevation
No new snow has been reported.

Earthquake Activity

City Distance Mag. Time & Date
No recent earthquake activity has been reported nearby.
Minimum magnitude displayed is 2.5.

Coastal Water Temperatures

Place Temperature
No Stations Reporting

Nearby Weather Stations